sensor_id;sensor_type;location;lat;lon;timestamp;pressure;altitude;pressure_sealevel;temperature
20289;BMP180;10303;51.960;8.372;2022-11-15T00:01:27;99949.00;;;13.10
20289;BMP180;10303;51.960;8.372;2022-11-15T00:04:11;99940.00;;;13.10
20289;BMP180;10303;51.960;8.372;2022-11-15T00:06:56;99936.00;;;13.10
20289;BMP180;10303;51.960;8.372;2022-11-15T00:09:41;99931.00;;;13.20
20289;BMP180;10303;51.960;8.372;2022-11-15T00:12:35;99930.00;;;13.10
20289;BMP180;10303;51.960;8.372;2022-11-15T00:23:54;99942.00;;;13.30
20289;BMP180;10303;51.960;8.372;2022-11-15T00:33:54;99907.00;;;13.30
20289;BMP180;10303;51.960;8.372;2022-11-15T00:47:14;99897.00;;;13.40
20289;BMP180;10303;51.960;8.372;2022-11-15T00:53:06;99906.00;;;13.50
20289;BMP180;10303;51.960;8.372;2022-11-15T00:55:52;99898.00;;;13.50
20289;BMP180;10303;51.960;8.372;2022-11-15T01:01:54;99903.00;;;13.60
20289;BMP180;10303;51.960;8.372;2022-11-15T01:04:40;99891.00;;;13.60
20289;BMP180;10303;51.960;8.372;2022-11-15T01:10:54;99890.00;;;13.60
20289;BMP180;10303;51.960;8.372;2022-11-15T01:16:42;99889.00;;;13.70
20289;BMP180;10303;51.960;8.372;2022-11-15T01:29:39;99874.00;;;13.90
20289;BMP180;10303;51.960;8.372;2022-11-15T01:32:24;99865.00;;;13.90
20289;BMP180;10303;51.960;8.372;2022-11-15T01:35:09;99869.00;;;13.90
20289;BMP180;10303;51.960;8.372;2022-11-15T01:37:53;99861.00;;;14.00
20289;BMP180;10303;51.960;8.372;2022-11-15T01:40:38;99855.00;;;14.00
20289;BMP180;10303;51.960;8.372;2022-11-15T01:43:46;99857.00;;;14.00
20289;BMP180;10303;51.960;8.372;2022-11-15T01:49:22;99852.00;;;14.10
20289;BMP180;10303;51.960;8.372;2022-11-15T01:52:23;99859.00;;;14.10
20289;BMP180;10303;51.960;8.372;2022-11-15T01:55:20;99859.00;;;14.10
20289;BMP180;10303;51.960;8.372;2022-11-15T01:58:11;99844.00;;;14.10
20289;BMP180;10303;51.960;8.372;2022-11-15T02:12:08;99826.00;;;14.20
20289;BMP180;10303;51.960;8.372;2022-11-15T02:15:11;99848.00;;;14.20
20289;BMP180;10303;51.960;8.372;2022-11-15T02:18:49;99845.00;;;14.20
20289;BMP180;10303;51.960;8.372;2022-11-15T02:29:14;99828.00;;;14.30
20289;BMP180;10303;51.960;8.372;2022-11-15T02:44:38;99831.00;;;14.40
20289;BMP180;10303;51.960;8.372;2022-11-15T02:50:49;99826.00;;;14.50
20289;BMP180;10303;51.960;8.372;2022-11-15T02:56:36;99833.00;;;14.60
20289;BMP180;10303;51.960;8.372;2022-11-15T03:00:08;99826.00;;;14.60
20289;BMP180;10303;51.960;8.372;2022-11-15T03:17:34;99820.00;;;14.70
20289;BMP180;10303;51.960;8.372;2022-11-15T03:20:26;99823.00;;;14.80
20289;BMP180;10303;51.960;8.372;2022-11-15T03:23:36;99826.00;;;14.90
20289;BMP180;10303;51.960;8.372;2022-11-15T03:26:25;99802.00;;;14.90
20289;BMP180;10303;51.960;8.372;2022-11-15T03:32:26;99823.00;;;14.90
20289;BMP180;10303;51.960;8.372;2022-11-15T03:38:26;99824.00;;;14.90
20289;BMP180;10303;51.960;8.372;2022-11-15T03:44:59;99840.00;;;15.00
20289;BMP180;10303;51.960;8.372;2022-11-15T03:48:10;99829.00;;;15.00
20289;BMP180;10303;51.960;8.372;2022-11-15T03:50:57;99834.00;;;15.00
20289;BMP180;10303;51.960;8.372;2022-11-15T03:56:31;99812.00;;;15.10
20289;BMP180;10303;51.960;8.372;2022-11-15T03:59:16;99810.00;;;15.10
20289;BMP180;10303;51.960;8.372;2022-11-15T04:02:01;99826.00;;;15.10
20289;BMP180;10303;51.960;8.372;2022-11-15T04:04:46;99819.00;;;15.10
20289;BMP180;10303;51.960;8.372;2022-11-15T04:07:30;99819.00;;;15.10
20289;BMP180;10303;51.960;8.372;2022-11-15T04:10:22;99821.00;;;15.20
20289;BMP180;10303;51.960;8.372;2022-11-15T04:13:23;99796.00;;;15.20
20289;BMP180;10303;51.960;8.372;2022-11-15T04:16:07;99805.00;;;15.20
20289;BMP180;10303;51.960;8.372;2022-11-15T04:18:52;99803.00;;;15.20
20289;BMP180;10303;51.960;8.372;2022-11-15T04:21:53;99803.00;;;15.20
20289;BMP180;10303;51.960;8.372;2022-11-15T04:25:10;99802.00;;;15.20
20289;BMP180;10303;51.960;8.372;2022-11-15T04:28:12;99794.00;;;15.20
20289;BMP180;10303;51.960;8.372;2022-11-15T04:34:05;99794.00;;;15.20
20289;BMP180;10303;51.960;8.372;2022-11-15T04:36:50;99822.00;;;15.20
20289;BMP180;10303;51.960;8.372;2022-11-15T04:39:57;99821.00;;;15.10
20289;BMP180;10303;51.960;8.372;2022-11-15T04:45:58;99823.00;;;15.20
20289;BMP180;10303;51.960;8.372;2022-11-15T05:01:45;99808.00;;;15.10
20289;BMP180;10303;51.960;8.372;2022-11-15T05:07:48;99804.00;;;15.10
20289;BMP180;10303;51.960;8.372;2022-11-15T05:13:54;99809.00;;;15.20
20289;BMP180;10303;51.960;8.372;2022-11-15T05:16:40;99811.00;;;15.10
20289;BMP180;10303;51.960;8.372;2022-11-15T05:19:31;99808.00;;;15.20
20289;BMP180;10303;51.960;8.372;2022-11-15T05:22:15;99805.00;;;15.20
20289;BMP180;10303;51.960;8.372;2022-11-15T05:37:24;99798.00;;;15.20
20289;BMP180;10303;51.960;8.372;2022-11-15T05:40:11;99797.00;;;15.20
20289;BMP180;10303;51.960;8.372;2022-11-15T05:43:15;99789.00;;;15.10
20289;BMP180;10303;51.960;8.372;2022-11-15T06:02:32;99788.00;;;15.10
20289;BMP180;10303;51.960;8.372;2022-11-15T06:08:59;99794.00;;;15.10
20289;BMP180;10303;51.960;8.372;2022-11-15T06:21:03;99794.00;;;15.10
20289;BMP180;10303;51.960;8.372;2022-11-15T06:23:48;99793.00;;;15.10
20289;BMP180;10303;51.960;8.372;2022-11-15T06:26:33;99800.00;;;15.20
20289;BMP180;10303;51.960;8.372;2022-11-15T06:29:23;99792.00;;;15.20
20289;BMP180;10303;51.960;8.372;2022-11-15T06:32:31;99802.00;;;15.20
20289;BMP180;10303;51.960;8.372;2022-11-15T06:36:10;99788.00;;;15.20
20289;BMP180;10303;51.960;8.372;2022-11-15T06:42:28;99818.00;;;15.20
20289;BMP180;10303;51.960;8.372;2022-11-15T06:45:19;99809.00;;;15.20
20289;BMP180;10303;51.960;8.372;2022-11-15T07:00:44;99809.00;;;15.30
20289;BMP180;10303;51.960;8.372;2022-11-15T07:07:02;99820.00;;;15.40
20289;BMP180;10303;51.960;8.372;2022-11-15T07:10:12;99830.00;;;15.40
20289;BMP180;10303;51.960;8.372;2022-11-15T07:32:28;99854.00;;;15.60
20289;BMP180;10303;51.960;8.372;2022-11-15T07:35:13;99837.00;;;15.60
20289;BMP180;10303;51.960;8.372;2022-11-15T07:40:57;99851.00;;;15.70
20289;BMP180;10303;51.960;8.372;2022-11-15T07:46:59;99852.00;;;15.70
20289;BMP180;10303;51.960;8.372;2022-11-15T07:49:45;99858.00;;;15.70
20289;BMP180;10303;51.960;8.372;2022-11-15T07:55:58;99853.00;;;15.80
20289;BMP180;10303;51.960;8.372;2022-11-15T08:09:26;99854.00;;;16.00
20289;BMP180;10303;51.960;8.372;2022-11-15T08:12:43;99838.00;;;16.00
20289;BMP180;10303;51.960;8.372;2022-11-15T08:18:56;99850.00;;;16.20
20289;BMP180;10303;51.960;8.372;2022-11-15T08:21:40;99835.00;;;16.30
20289;BMP180;10303;51.960;8.372;2022-11-15T08:24:25;99835.00;;;16.40
20289;BMP180;10303;51.960;8.372;2022-11-15T08:27:16;99840.00;;;16.50
20289;BMP180;10303;51.960;8.372;2022-11-15T08:30:19;99829.00;;;16.60
20289;BMP180;10303;51.960;8.372;2022-11-15T08:33:35;99825.00;;;16.70
20289;BMP180;10303;51.960;8.372;2022-11-15T08:36:50;99824.00;;;16.80
20289;BMP180;10303;51.960;8.372;2022-11-15T08:39:44;99822.00;;;16.90
20289;BMP180;10303;51.960;8.372;2022-11-15T08:42:31;99809.00;;;17.10
20289;BMP180;10303;51.960;8.372;2022-11-15T08:45:16;99832.00;;;17.40
20289;BMP180;10303;51.960;8.372;2022-11-15T08:51:05;99844.00;;;18.10
20289;BMP180;10303;51.960;8.372;2022-11-15T08:53:50;99843.00;;;18.50
20289;BMP180;10303;51.960;8.372;2022-11-15T08:59:23;99849.00;;;18.90
20289;BMP180;10303;51.960;8.372;2022-11-15T09:02:14;99835.00;;;19.00
20289;BMP180;10303;51.960;8.372;2022-11-15T09:08:00;99825.00;;;19.30
20289;BMP180;10303;51.960;8.372;2022-11-15T09:11:14;99841.00;;;19.50
20289;BMP180;10303;51.960;8.372;2022-11-15T09:14:26;99834.00;;;19.50
20289;BMP180;10303;51.960;8.372;2022-11-15T09:17:11;99833.00;;;19.60
20289;BMP180;10303;51.960;8.372;2022-11-15T09:19:58;99833.00;;;19.70
20289;BMP180;10303;51.960;8.372;2022-11-15T09:25:44;99835.00;;;19.90
20289;BMP180;10303;51.960;8.372;2022-11-15T09:28:31;99829.00;;;19.90
20289;BMP180;10303;51.960;8.372;2022-11-15T09:31:17;99830.00;;;19.80
20289;BMP180;10303;51.960;8.372;2022-11-15T09:34:14;99836.00;;;19.90
20289;BMP180;10303;51.960;8.372;2022-11-15T09:36:59;99837.00;;;19.90
20289;BMP180;10303;51.960;8.372;2022-11-15T09:39:44;99835.00;;;19.90
20289;BMP180;10303;51.960;8.372;2022-11-15T09:49:15;99828.00;;;20.00
20289;BMP180;10303;51.960;8.372;2022-11-15T09:52:21;99842.00;;;20.00
20289;BMP180;10303;51.960;8.372;2022-11-15T09:54:51;99839.00;;;20.00
20289;BMP180;10303;51.960;8.372;2022-11-15T09:57:58;99835.00;;;20.00
20289;BMP180;10303;51.960;8.372;2022-11-15T10:00:35;99832.00;;;20.00
20289;BMP180;10303;51.960;8.372;2022-11-15T10:03:41;99836.00;;;19.90
20289;BMP180;10303;51.960;8.372;2022-11-15T10:06:25;99831.00;;;19.90
20289;BMP180;10303;51.960;8.372;2022-11-15T10:09:15;99830.00;;;19.90
20289;BMP180;10303;51.960;8.372;2022-11-15T10:11:42;99837.00;;;19.90
20289;BMP180;10303;51.960;8.372;2022-11-15T10:14:26;99813.00;;;19.90
20289;BMP180;10303;51.960;8.372;2022-11-15T10:16:59;99824.00;;;20.00
20289;BMP180;10303;51.960;8.372;2022-11-15T10:20:30;99810.00;;;20.00
20289;BMP180;10303;51.960;8.372;2022-11-15T10:23:06;99797.00;;;20.00
20289;BMP180;10303;51.960;8.372;2022-11-15T10:25:47;99802.00;;;20.10
20289;BMP180;10303;51.960;8.372;2022-11-15T10:28:33;99803.00;;;20.10
20289;BMP180;10303;51.960;8.372;2022-11-15T10:31:24;99791.00;;;20.20
20289;BMP180;10303;51.960;8.372;2022-11-15T10:34:42;99792.00;;;20.40
20289;BMP180;10303;51.960;8.372;2022-11-15T10:40:24;99780.00;;;20.80
20289;BMP180;10303;51.960;8.372;2022-11-15T10:43:21;99779.00;;;20.90
20289;BMP180;10303;51.960;8.372;2022-11-15T10:45:50;99786.00;;;21.10
20289;BMP180;10303;51.960;8.372;2022-11-15T10:48:22;99774.00;;;21.30
20289;BMP180;10303;51.960;8.372;2022-11-15T10:50:50;99776.00;;;21.50
20289;BMP180;10303;51.960;8.372;2022-11-15T10:53:57;99772.00;;;21.60
20289;BMP180;10303;51.960;8.372;2022-11-15T10:56:26;99772.00;;;21.70
20289;BMP180;10303;51.960;8.372;2022-11-15T10:58:56;99763.00;;;21.80
20289;BMP180;10303;51.960;8.372;2022-11-15T11:04:20;99759.00;;;22.00
20289;BMP180;10303;51.960;8.372;2022-11-15T11:06:56;99748.00;;;22.20
20289;BMP180;10303;51.960;8.372;2022-11-15T11:09:39;99743.00;;;22.30
20289;BMP180;10303;51.960;8.372;2022-11-15T11:12:32;99761.00;;;22.50
20289;BMP180;10303;51.960;8.372;2022-11-15T11:15:15;99755.00;;;22.70
20289;BMP180;10303;51.960;8.372;2022-11-15T11:18:10;99759.00;;;22.90
20289;BMP180;10303;51.960;8.372;2022-11-15T11:21:11;99744.00;;;22.90
20289;BMP180;10303;51.960;8.372;2022-11-15T11:25:04;99745.00;;;22.80
20289;BMP180;10303;51.960;8.372;2022-11-15T11:49:02;99708.00;;;24.70
20289;BMP180;10303;51.960;8.372;2022-11-15T11:51:41;99691.00;;;25.00
20289;BMP180;10303;51.960;8.372;2022-11-15T11:54:30;99705.00;;;25.20
20289;BMP180;10303;51.960;8.372;2022-11-15T12:00:41;99694.00;;;25.60
20289;BMP180;10303;51.960;8.372;2022-11-15T12:03:40;99707.00;;;25.80
20289;BMP180;10303;51.960;8.372;2022-11-15T12:07:00;99692.00;;;25.90
20289;BMP180;10303;51.960;8.372;2022-11-15T12:10:12;99688.00;;;26.10
20289;BMP180;10303;51.960;8.372;2022-11-15T12:15:27;99684.00;;;26.20
20289;BMP180;10303;51.960;8.372;2022-11-15T12:18:00;99687.00;;;26.30
20289;BMP180;10303;51.960;8.372;2022-11-15T12:24:06;99675.00;;;26.20
20289;BMP180;10303;51.960;8.372;2022-11-15T12:26:51;99682.00;;;26.10
20289;BMP180;10303;51.960;8.372;2022-11-15T12:32:01;99669.00;;;26.10
20289;BMP180;10303;51.960;8.372;2022-11-15T12:34:36;99669.00;;;26.00
20289;BMP180;10303;51.960;8.372;2022-11-15T12:40:38;99656.00;;;26.10
20289;BMP180;10303;51.960;8.372;2022-11-15T12:43:41;99655.00;;;26.10
20289;BMP180;10303;51.960;8.372;2022-11-15T12:46:20;99658.00;;;26.20
20289;BMP180;10303;51.960;8.372;2022-11-15T12:49:07;99658.00;;;26.30
20289;BMP180;10303;51.960;8.372;2022-11-15T13:02:43;99634.00;;;25.80
20289;BMP180;10303;51.960;8.372;2022-11-15T13:11:46;99634.00;;;25.30
20289;BMP180;10303;51.960;8.372;2022-11-15T13:14:50;99632.00;;;25.20
20289;BMP180;10303;51.960;8.372;2022-11-15T13:17:50;99624.00;;;25.10
20289;BMP180;10303;51.960;8.372;2022-11-15T13:20:29;99625.00;;;24.90
20289;BMP180;10303;51.960;8.372;2022-11-15T13:23:08;99625.00;;;24.70
20289;BMP180;10303;51.960;8.372;2022-11-15T13:25:58;99621.00;;;24.50
20289;BMP180;10303;51.960;8.372;2022-11-15T13:29:14;99612.00;;;24.30
20289;BMP180;10303;51.960;8.372;2022-11-15T13:31:45;99605.00;;;24.10
20289;BMP180;10303;51.960;8.372;2022-11-15T13:34:33;99606.00;;;23.90
20289;BMP180;10303;51.960;8.372;2022-11-15T13:37:00;99588.00;;;23.70
20289;BMP180;10303;51.960;8.372;2022-11-15T13:39:33;99598.00;;;23.50
20289;BMP180;10303;51.960;8.372;2022-11-15T13:42:10;99587.00;;;23.30
20289;BMP180;10303;51.960;8.372;2022-11-15T13:44:57;99590.00;;;23.10
20289;BMP180;10303;51.960;8.372;2022-11-15T13:47:27;99598.00;;;23.00
20289;BMP180;10303;51.960;8.372;2022-11-15T13:49:53;99597.00;;;22.90
20289;BMP180;10303;51.960;8.372;2022-11-15T13:52:27;99599.00;;;22.70
20289;BMP180;10303;51.960;8.372;2022-11-15T13:55:15;99597.00;;;22.40
20289;BMP180;10303;51.960;8.372;2022-11-15T13:58:03;99596.00;;;22.30
20289;BMP180;10303;51.960;8.372;2022-11-15T14:01:01;99584.00;;;22.10
20289;BMP180;10303;51.960;8.372;2022-11-15T14:03:37;99575.00;;;22.10
20289;BMP180;10303;51.960;8.372;2022-11-15T14:06:15;99579.00;;;22.00
20289;BMP180;10303;51.960;8.372;2022-11-15T14:11:31;99571.00;;;21.80
20289;BMP180;10303;51.960;8.372;2022-11-15T14:16:44;99578.00;;;21.60
20289;BMP180;10303;51.960;8.372;2022-11-15T14:22:28;99568.00;;;21.30
20289;BMP180;10303;51.960;8.372;2022-11-15T14:25:21;99571.00;;;21.20
20289;BMP180;10303;51.960;8.372;2022-11-15T14:30:56;99556.00;;;21.10
20289;BMP180;10303;51.960;8.372;2022-11-15T14:33:31;99553.00;;;21.00
20289;BMP180;10303;51.960;8.372;2022-11-15T14:36:16;99553.00;;;20.90
20289;BMP180;10303;51.960;8.372;2022-11-15T14:38:43;99532.00;;;20.90
20289;BMP180;10303;51.960;8.372;2022-11-15T14:41:27;99550.00;;;20.80
20289;BMP180;10303;51.960;8.372;2022-11-15T14:43:53;99537.00;;;20.80
20289;BMP180;10303;51.960;8.372;2022-11-15T14:46:19;99535.00;;;20.70
20289;BMP180;10303;51.960;8.372;2022-11-15T14:48:45;99542.00;;;20.60
20289;BMP180;10303;51.960;8.372;2022-11-15T14:51:17;99541.00;;;20.50
20289;BMP180;10303;51.960;8.372;2022-11-15T14:53:45;99542.00;;;20.50
20289;BMP180;10303;51.960;8.372;2022-11-15T14:56:12;99525.00;;;20.40
20289;BMP180;10303;51.960;8.372;2022-11-15T14:58:38;99531.00;;;20.30
20289;BMP180;10303;51.960;8.372;2022-11-15T15:01:26;99528.00;;;20.20
20289;BMP180;10303;51.960;8.372;2022-11-15T15:03:54;99521.00;;;20.20
20289;BMP180;10303;51.960;8.372;2022-11-15T15:06:35;99533.00;;;20.10
20289;BMP180;10303;51.960;8.372;2022-11-15T15:09:06;99515.00;;;20.00
20289;BMP180;10303;51.960;8.372;2022-11-15T15:11:41;99503.00;;;20.00
20289;BMP180;10303;51.960;8.372;2022-11-15T15:14:08;99521.00;;;19.90
20289;BMP180;10303;51.960;8.372;2022-11-15T15:16:34;99498.00;;;19.90
20289;BMP180;10303;51.960;8.372;2022-11-15T15:19:01;99510.00;;;19.80
20289;BMP180;10303;51.960;8.372;2022-11-15T15:21:28;99516.00;;;19.70
20289;BMP180;10303;51.960;8.372;2022-11-15T15:23:58;99515.00;;;19.70
20289;BMP180;10303;51.960;8.372;2022-11-15T15:26:26;99500.00;;;19.60
20289;BMP180;10303;51.960;8.372;2022-11-15T15:28:52;99498.00;;;19.60
20289;BMP180;10303;51.960;8.372;2022-11-15T15:31:22;99507.00;;;19.50
20289;BMP180;10303;51.960;8.372;2022-11-15T15:34:13;99494.00;;;19.40
20289;BMP180;10303;51.960;8.372;2022-11-15T15:36:45;99489.00;;;19.30
20289;BMP180;10303;51.960;8.372;2022-11-15T15:39:12;99498.00;;;19.30
20289;BMP180;10303;51.960;8.372;2022-11-15T15:41:38;99491.00;;;19.20
20289;BMP180;10303;51.960;8.372;2022-11-15T15:44:05;99493.00;;;19.20
20289;BMP180;10303;51.960;8.372;2022-11-15T15:46:31;99481.00;;;19.10
20289;BMP180;10303;51.960;8.372;2022-11-15T15:51:57;99469.00;;;18.90
20289;BMP180;10303;51.960;8.372;2022-11-15T15:57:17;99455.00;;;18.80
20289;BMP180;10303;51.960;8.372;2022-11-15T15:59:58;99470.00;;;18.70
20289;BMP180;10303;51.960;8.372;2022-11-15T16:02:30;99464.00;;;18.60
20289;BMP180;10303;51.960;8.372;2022-11-15T16:04:57;99465.00;;;18.60
20289;BMP180;10303;51.960;8.372;2022-11-15T16:10:59;99444.00;;;18.40
20289;BMP180;10303;51.960;8.372;2022-11-15T16:19:32;99430.00;;;18.20
20289;BMP180;10303;51.960;8.372;2022-11-15T16:22:07;99419.00;;;18.10
20289;BMP180;10303;51.960;8.372;2022-11-15T16:33:11;99417.00;;;17.80
20289;BMP180;10303;51.960;8.372;2022-11-15T16:36:01;99397.00;;;17.60
20289;BMP180;10303;51.960;8.372;2022-11-15T16:38:38;99416.00;;;17.60
20289;BMP180;10303;51.960;8.372;2022-11-15T16:41:08;99389.00;;;17.60
20289;BMP180;10303;51.960;8.372;2022-11-15T16:43:52;99396.00;;;17.50
20289;BMP180;10303;51.960;8.372;2022-11-15T16:47:01;99405.00;;;17.50
20289;BMP180;10303;51.960;8.372;2022-11-15T16:49:34;99395.00;;;17.40
20289;BMP180;10303;51.960;8.372;2022-11-15T16:52:01;99408.00;;;17.40
20289;BMP180;10303;51.960;8.372;2022-11-15T16:54:27;99401.00;;;17.30
20289;BMP180;10303;51.960;8.372;2022-11-15T16:56:59;99403.00;;;17.30
20289;BMP180;10303;51.960;8.372;2022-11-15T16:59:49;99404.00;;;17.20
20289;BMP180;10303;51.960;8.372;2022-11-15T17:02:24;99397.00;;;17.20
20289;BMP180;10303;51.960;8.372;2022-11-15T17:04:54;99382.00;;;17.20
20289;BMP180;10303;51.960;8.372;2022-11-15T17:07:34;99388.00;;;17.20
20289;BMP180;10303;51.960;8.372;2022-11-15T17:10:04;99385.00;;;17.10
20289;BMP180;10303;51.960;8.372;2022-11-15T17:12:41;99378.00;;;17.10
20289;BMP180;10303;51.960;8.372;2022-11-15T17:15:11;99377.00;;;17.10
20289;BMP180;10303;51.960;8.372;2022-11-15T17:18:27;99372.00;;;17.10
20289;BMP180;10303;51.960;8.372;2022-11-15T17:24:00;99387.00;;;17.10
20289;BMP180;10303;51.960;8.372;2022-11-15T17:26:35;99368.00;;;17.00
20289;BMP180;10303;51.960;8.372;2022-11-15T17:29:14;99374.00;;;17.00
20289;BMP180;10303;51.960;8.372;2022-11-15T17:31:43;99371.00;;;17.00
20289;BMP180;10303;51.960;8.372;2022-11-15T17:34:14;99372.00;;;17.00
20289;BMP180;10303;51.960;8.372;2022-11-15T17:36:41;99356.00;;;17.00
20289;BMP180;10303;51.960;8.372;2022-11-15T17:39:08;99360.00;;;17.00
20289;BMP180;10303;51.960;8.372;2022-11-15T17:45:12;99351.00;;;17.00
20289;BMP180;10303;51.960;8.372;2022-11-15T17:48:19;99356.00;;;17.10
20289;BMP180;10303;51.960;8.372;2022-11-15T17:51:25;99346.00;;;17.00
20289;BMP180;10303;51.960;8.372;2022-11-15T18:00:33;99350.00;;;17.00
20289;BMP180;10303;51.960;8.372;2022-11-15T18:03:27;99358.00;;;17.00
20289;BMP180;10303;51.960;8.372;2022-11-15T18:14:36;99336.00;;;17.10
20289;BMP180;10303;51.960;8.372;2022-11-15T18:36:11;99338.00;;;17.10
20289;BMP180;10303;51.960;8.372;2022-11-15T18:38:42;99317.00;;;17.10
20289;BMP180;10303;51.960;8.372;2022-11-15T18:41:46;99333.00;;;17.10
20289;BMP180;10303;51.960;8.372;2022-11-15T18:44:35;99328.00;;;17.10
20289;BMP180;10303;51.960;8.372;2022-11-15T18:47:50;99309.00;;;17.10
20289;BMP180;10303;51.960;8.372;2022-11-15T18:53:23;99315.00;;;17.10
20289;BMP180;10303;51.960;8.372;2022-11-15T18:56:29;99321.00;;;17.10
20289;BMP180;10303;51.960;8.372;2022-11-15T18:58:58;99322.00;;;17.20
20289;BMP180;10303;51.960;8.372;2022-11-15T19:16:01;99307.00;;;17.20
20289;BMP180;10303;51.960;8.372;2022-11-15T19:21:38;99285.00;;;17.20
20289;BMP180;10303;51.960;8.372;2022-11-15T19:32:51;99299.00;;;17.20
20289;BMP180;10303;51.960;8.372;2022-11-15T19:35:17;99294.00;;;17.20
20289;BMP180;10303;51.960;8.372;2022-11-15T19:37:48;99298.00;;;17.20
20289;BMP180;10303;51.960;8.372;2022-11-15T19:40:39;99280.00;;;17.20
20289;BMP180;10303;51.960;8.372;2022-11-15T19:44:35;99289.00;;;17.10
20289;BMP180;10303;51.960;8.372;2022-11-15T19:47:03;99281.00;;;17.20
20289;BMP180;10303;51.960;8.372;2022-11-15T19:55:38;99273.00;;;17.20
20289;BMP180;10303;51.960;8.372;2022-11-15T20:06:40;99259.00;;;17.20
20289;BMP180;10303;51.960;8.372;2022-11-15T20:09:15;99260.00;;;17.20
20289;BMP180;10303;51.960;8.372;2022-11-15T20:11:50;99253.00;;;17.20
20289;BMP180;10303;51.960;8.372;2022-11-15T20:15:07;99260.00;;;17.10
20289;BMP180;10303;51.960;8.372;2022-11-15T20:21:52;99263.00;;;17.10
20289;BMP180;10303;51.960;8.372;2022-11-15T20:27:35;99242.00;;;17.10
20289;BMP180;10303;51.960;8.372;2022-11-15T20:36:19;99251.00;;;17.00
20289;BMP180;10303;51.960;8.372;2022-11-15T20:39:27;99224.00;;;17.00
20289;BMP180;10303;51.960;8.372;2022-11-15T20:44:44;99239.00;;;17.00
20289;BMP180;10303;51.960;8.372;2022-11-15T21:03:07;99209.00;;;17.00
20289;BMP180;10303;51.960;8.372;2022-11-15T21:17:51;99209.00;;;16.90
20289;BMP180;10303;51.960;8.372;2022-11-15T21:23:52;99208.00;;;16.90
20289;BMP180;10303;51.960;8.372;2022-11-15T21:42:36;99206.00;;;16.80
20289;BMP180;10303;51.960;8.372;2022-11-15T21:45:27;99209.00;;;16.80
20289;BMP180;10303;51.960;8.372;2022-11-15T21:56:16;99174.00;;;16.80
20289;BMP180;10303;51.960;8.372;2022-11-15T21:58:44;99184.00;;;16.80
20289;BMP180;10303;51.960;8.372;2022-11-15T22:18:54;99175.00;;;16.70
20289;BMP180;10303;51.960;8.372;2022-11-15T22:24:38;99184.00;;;16.60
20289;BMP180;10303;51.960;8.372;2022-11-15T22:37:05;99163.00;;;16.40
20289;BMP180;10303;51.960;8.372;2022-11-15T22:39:40;99160.00;;;16.40
20289;BMP180;10303;51.960;8.372;2022-11-15T22:42:33;99158.00;;;16.40
20289;BMP180;10303;51.960;8.372;2022-11-15T22:45:59;99157.00;;;16.30
20289;BMP180;10303;51.960;8.372;2022-11-15T22:52:10;99151.00;;;16.30
20289;BMP180;10303;51.960;8.372;2022-11-15T22:54:38;99146.00;;;16.30
20289;BMP180;10303;51.960;8.372;2022-11-15T23:00:15;99139.00;;;16.20
20289;BMP180;10303;51.960;8.372;2022-11-15T23:02:44;99139.00;;;16.20
20289;BMP180;10303;51.960;8.372;2022-11-15T23:05:10;99149.00;;;16.20
20289;BMP180;10303;51.960;8.372;2022-11-15T23:07:39;99124.00;;;16.10
20289;BMP180;10303;51.960;8.372;2022-11-15T23:10:07;99120.00;;;16.10
20289;BMP180;10303;51.960;8.372;2022-11-15T23:13:18;99132.00;;;16.00
20289;BMP180;10303;51.960;8.372;2022-11-15T23:16:12;99104.00;;;16.00
20289;BMP180;10303;51.960;8.372;2022-11-15T23:22:14;99108.00;;;15.90
20289;BMP180;10303;51.960;8.372;2022-11-15T23:25:36;99109.00;;;15.90
20289;BMP180;10303;51.960;8.372;2022-11-15T23:28:30;99118.00;;;15.80
20289;BMP180;10303;51.960;8.372;2022-11-15T23:31:05;99120.00;;;15.80
20289;BMP180;10303;51.960;8.372;2022-11-15T23:34:14;99107.00;;;15.70
20289;BMP180;10303;51.960;8.372;2022-11-15T23:40:15;99114.00;;;15.70
20289;BMP180;10303;51.960;8.372;2022-11-15T23:42:45;99114.00;;;15.60
20289;BMP180;10303;51.960;8.372;2022-11-15T23:45:18;99114.00;;;15.60
20289;BMP180;10303;51.960;8.372;2022-11-15T23:47:48;99100.00;;;15.60
20289;BMP180;10303;51.960;8.372;2022-11-15T23:50:15;99103.00;;;15.60
20289;BMP180;10303;51.960;8.372;2022-11-15T23:52:41;99100.00;;;15.60
20289;BMP180;10303;51.960;8.372;2022-11-15T23:55:41;99101.00;;;15.50
20289;BMP180;10303;51.960;8.372;2022-11-15T23:58:08;99100.00;;;15.50
